Time;durP1;ratioP1;P1;durP2;ratioP2;P2;SDS_P1;SDS_P2;PMS_P1;PMS_P2;Temp;Humidity;BMP_temperature;BMP_pressure;BME280_temperature;BME280_humidity;BME280_pressure;Samples;Min_cycle;Max_cycle;Signal;HPM_P1;HPM_P2
2023/01/17 00:01:32;;;;;;;1.47;0.90;;;6.30;70.40;;;;;;5007287;28;20272;-58
2023/01/17 00:12:10;;;;;;;1.03;0.93;;;6.10;71.60;;;;;;4998940;28;22622;-58
2023/01/17 00:14:36;;;;;;;1.17;1.07;;;6.10;70.90;;;;;;4999561;28;20446;-58
2023/01/17 00:17:02;;;;;;;1.80;0.97;;;6.30;70.60;;;;;;5004510;28;20206;-58
2023/01/17 01:34:06;;;;;;;2.50;1.20;;;7.70;61.90;;;;;;5007514;28;20471;-59
2023/01/17 01:36:32;;;;;;;1.10;1.00;;;7.70;61.70;;;;;;5007558;28;20475;-58
2023/01/17 01:38:57;;;;;;;1.83;1.20;;;7.70;61.50;;;;;;5010667;28;20226;-58
2023/01/17 01:41:23;;;;;;;1.50;1.40;;;7.80;61.00;;;;;;5009025;28;20583;-58
2023/01/17 01:43:50;;;;;;;3.07;1.77;;;7.90;60.50;;;;;;5004355;28;20194;-58
2023/01/17 01:46:36;;;;;;;1.27;1.17;;;7.80;60.00;;;;;;5001283;28;20230;-58
2023/01/17 01:49:11;;;;;;;1.07;0.97;;;7.70;59.80;;;;;;5005428;28;20477;-58
2023/01/17 01:51:51;;;;;;;1.60;1.17;;;7.60;59.90;;;;;;5010069;28;20476;-58
2023/01/17 01:54:21;;;;;;;1.20;1.10;;;7.70;59.90;;;;;;5005571;28;21250;-58
2023/01/17 01:56:49;;;;;;;1.20;1.10;;;7.80;59.60;;;;;;5004215;28;20441;-58
2023/01/17 01:59:18;;;;;;;1.60;1.40;;;7.70;59.40;;;;;;5001687;28;20571;-59
2023/01/17 02:01:46;;;;;;;1.70;1.00;;;7.70;59.50;;;;;;5009970;28;20437;-59
2023/01/17 02:04:12;;;;;;;1.17;1.07;;;7.80;59.20;;;;;;5004760;28;20465;-59
2023/01/17 02:06:42;;;;;;;5.00;1.10;;;7.80;59.20;;;;;;4995765;28;20453;-58
2023/01/17 02:09:11;;;;;;;2.17;1.50;;;7.80;59.00;;;;;;5001852;28;21002;-59
2023/01/17 02:11:38;;;;;;;3.63;1.80;;;7.80;58.50;;;;;;5006385;28;20453;-58
2023/01/17 02:14:04;;;;;;;1.63;1.50;;;7.80;58.30;;;;;;5001116;28;20806;-58
2023/01/17 02:16:45;;;;;;;3.87;1.40;;;7.90;58.40;;;;;;5001874;28;20530;-58
2023/01/17 02:19:56;;;;;;;1.83;1.67;;;8.00;58.30;;;;;;5009266;28;20242;-58
2023/01/17 02:22:28;;;;;;;2.53;1.20;;;8.10;57.90;;;;;;5005555;28;20448;-59
2023/01/17 02:25:17;;;;;;;1.40;1.30;;;8.30;57.70;;;;;;5010449;28;20536;-59
2023/01/17 02:28:03;;;;;;;1.50;1.40;;;8.30;57.30;;;;;;5005914;28;21026;-59
2023/01/17 02:30:48;;;;;;;1.57;1.37;;;8.40;57.20;;;;;;4998038;28;20456;-59
2023/01/17 02:33:35;;;;;;;2.00;1.40;;;8.40;57.30;;;;;;5004120;28;20454;-59
2023/01/17 02:36:29;;;;;;;1.17;1.07;;;8.40;57.00;;;;;;5001712;28;20528;-59
2023/01/17 02:39:19;;;;;;;1.30;1.13;;;8.50;57.70;;;;;;5005493;28;20488;-59
2023/01/17 02:41:50;;;;;;;1.23;1.13;;;8.50;56.90;;;;;;4997210;28;20893;-59
2023/01/17 02:44:18;;;;;;;2.20;1.10;;;8.60;56.80;;;;;;5002752;28;20881;-59
2023/01/17 02:46:55;;;;;;;4.17;1.40;;;8.50;56.70;;;;;;4998539;28;20767;-59
2023/01/17 02:49:27;;;;;;;1.83;1.20;;;8.60;56.90;;;;;;5003729;28;20472;-59
2023/01/17 02:52:17;;;;;;;1.37;1.27;;;8.50;56.60;;;;;;5000808;28;20443;-59
2023/01/17 02:55:00;;;;;;;2.77;1.43;;;8.40;56.80;;;;;;5002732;28;20527;-58
2023/01/17 02:57:44;;;;;;;1.90;1.47;;;8.60;56.50;;;;;;4998195;28;20456;-59
2023/01/17 03:00:27;;;;;;;1.50;1.40;;;8.60;56.40;;;;;;5003752;28;20453;-59
2023/01/17 03:03:30;;;;;;;1.70;1.43;;;8.60;56.30;;;;;;4999020;28;20881;-59
2023/01/17 03:06:02;;;;;;;1.77;1.40;;;8.50;56.20;;;;;;4999000;28;20442;-59
2023/01/17 03:08:29;;;;;;;1.57;1.47;;;8.60;56.10;;;;;;5011150;28;20523;-59
2023/01/17 03:10:55;;;;;;;2.70;2.10;;;8.60;55.70;;;;;;5010341;28;20467;-59
2023/01/17 03:13:21;;;;;;;2.93;1.17;;;8.70;55.70;;;;;;4998131;28;20441;-59
2023/01/17 03:15:47;;;;;;;1.80;1.20;;;8.90;55.50;;;;;;5000758;28;20440;-59
2023/01/17 03:18:14;;;;;;;1.17;0.97;;;8.90;55.40;;;;;;5004168;28;20225;-60
2023/01/17 03:20:40;;;;;;;1.50;1.40;;;8.90;55.50;;;;;;5003659;28;20244;-59
2023/01/17 03:23:05;;;;;;;1.33;0.93;;;9.00;55.80;;;;;;5009196;28;20425;-59
2023/01/17 03:25:31;;;;;;;3.20;1.30;;;9.00;55.90;;;;;;4998473;28;20197;-58
2023/01/17 03:27:56;;;;;;;2.03;1.50;;;9.00;56.00;;;;;;5002367;28;20264;-59
2023/01/17 03:30:22;;;;;;;3.17;1.30;;;9.10;56.10;;;;;;5003943;28;20186;-59
2023/01/17 03:32:48;;;;;;;1.27;1.17;;;9.00;56.30;;;;;;5004575;28;20710;-59
2023/01/17 03:35:14;;;;;;;2.20;1.40;;;9.00;56.40;;;;;;5006475;28;20194;-58
2023/01/17 03:37:40;;;;;;;1.60;1.50;;;9.00;56.70;;;;;;4998872;28;20580;-58
2023/01/17 03:40:06;;;;;;;1.70;1.50;;;9.00;56.90;;;;;;5004042;28;20976;-58
2023/01/17 03:42:32;;;;;;;1.90;1.50;;;9.00;57.10;;;;;;5000261;28;20194;-59
2023/01/17 03:44:58;;;;;;;1.87;1.50;;;9.00;57.00;;;;;;4997135;28;20960;-59
2023/01/17 03:47:23;;;;;;;2.80;1.10;;;9.00;56.90;;;;;;5001047;28;20241;-59
2023/01/17 03:49:50;;;;;;;1.30;1.20;;;9.10;56.80;;;;;;5000083;28;20626;-60
2023/01/17 03:52:16;;;;;;;1.10;1.00;;;8.90;56.60;;;;;;5004138;28;20230;-59
2023/01/17 03:54:42;;;;;;;2.03;0.80;;;8.80;56.90;;;;;;5007001;28;20473;-59
2023/01/17 03:57:07;;;;;;;1.27;0.90;;;8.50;57.10;;;;;;5002303;28;20208;-58
2023/01/17 03:59:33;;;;;;;1.40;1.30;;;8.50;57.50;;;;;;5003851;28;20713;-59
2023/01/17 04:02:00;;;;;;;2.10;1.37;;;8.40;58.10;;;;;;5008175;28;20205;-58
2023/01/17 04:04:25;;;;;;;1.13;1.03;;;7.90;59.20;;;;;;5009867;28;20201;-58
2023/01/17 04:06:51;;;;;;;2.37;1.20;;;7.70;62.00;;;;;;5003367;28;20445;-58
2023/01/17 04:09:16;;;;;;;1.17;1.00;;;7.30;62.80;;;;;;5000568;28;20190;-58
2023/01/17 04:11:42;;;;;;;1.37;1.27;;;7.10;64.10;;;;;;5008893;28;20645;-59
2023/01/17 04:14:07;;;;;;;1.67;1.17;;;7.00;65.10;;;;;;5000515;28;20221;-58
2023/01/17 04:16:33;;;;;;;1.20;1.10;;;6.70;64.70;;;;;;5007476;28;20197;-58
2023/01/17 04:18:59;;;;;;;1.93;1.17;;;6.60;64.00;;;;;;4998723;28;20689;-59
2023/01/17 04:21:24;;;;;;;1.10;1.00;;;6.40;65.00;;;;;;5005352;28;20584;-59
2023/01/17 04:23:50;;;;;;;1.30;0.80;;;6.40;65.80;;;;;;5008046;28;20284;-59
2023/01/17 04:26:15;;;;;;;1.00;0.90;;;6.80;65.20;;;;;;4994882;28;20570;-59
2023/01/17 04:28:41;;;;;;;2.20;1.20;;;7.00;63.40;;;;;;5008367;28;20583;-58
2023/01/17 04:31:09;;;;;;;0.80;0.80;;;7.10;62.90;;;;;;5004252;28;20198;-58
2023/01/17 04:33:34;;;;;;;1.23;1.13;;;7.40;62.70;;;;;;4999065;28;20563;-58
2023/01/17 04:36:00;;;;;;;1.30;1.10;;;7.50;62.40;;;;;;5006248;28;20451;-59
2023/01/17 04:38:25;;;;;;;3.40;1.10;;;7.70;62.40;;;;;;5006867;28;20240;-58
2023/01/17 04:40:51;;;;;;;1.37;1.10;;;7.80;62.80;;;;;;4998023;28;20182;-58
2023/01/17 04:43:16;;;;;;;1.77;1.07;;;7.90;61.70;;;;;;5001815;28;20591;-58
2023/01/17 04:45:42;;;;;;;1.10;0.80;;;7.90;61.60;;;;;;5000172;28;20202;-58
2023/01/17 04:48:11;;;;;;;1.27;1.17;;;7.90;61.90;;;;;;5006937;28;20625;-58
2023/01/17 04:50:37;;;;;;;4.13;1.30;;;8.00;61.60;;;;;;5000514;28;20962;-58
2023/01/17 04:53:03;;;;;;;1.30;1.20;;;8.00;62.00;;;;;;5003117;28;20441;-58
2023/01/17 04:55:28;;;;;;;2.30;2.07;;;8.10;61.10;;;;;;4996952;28;20955;-58
2023/01/17 04:57:54;;;;;;;2.27;1.93;;;8.00;60.80;;;;;;5002348;28;20210;-58
2023/01/17 05:00:20;;;;;;;1.30;1.20;;;8.00;60.80;;;;;;5010585;28;20194;-58
2023/01/17 05:02:46;;;;;;;1.87;1.33;;;8.00;61.20;;;;;;5001576;28;20685;-58
2023/01/17 05:05:12;;;;;;;2.93;1.13;;;8.00;61.20;;;;;;5006834;28;20494;-58
2023/01/17 05:07:37;;;;;;;2.40;1.70;;;8.00;61.40;;;;;;5007294;28;20565;-58
2023/01/17 05:10:03;;;;;;;1.83;1.73;;;8.00;61.50;;;;;;5003114;28;20449;-58
2023/01/17 05:12:29;;;;;;;3.87;3.57;;;8.00;61.40;;;;;;5003320;28;20190;-58
2023/01/17 05:14:55;;;;;;;4.57;2.70;;;8.10;61.50;;;;;;5000598;28;20446;-58
2023/01/17 05:17:20;;;;;;;3.07;2.87;;;8.10;61.30;;;;;;5002211;28;20202;-58
2023/01/17 05:19:46;;;;;;;3.60;3.30;;;8.10;61.20;;;;;;4998665;28;20233;-58
2023/01/17 05:22:16;;;;;;;4.40;3.60;;;8.10;61.30;;;;;;5004391;28;20192;-58
2023/01/17 05:24:45;;;;;;;3.40;3.10;;;8.10;61.50;;;;;;5004404;28;20272;-58
2023/01/17 05:27:12;;;;;;;3.80;3.10;;;8.10;61.60;;;;;;5006451;28;20440;-58
2023/01/17 05:29:38;;;;;;;2.30;2.10;;;8.10;61.60;;;;;;5005181;28;20492;-59
2023/01/17 05:32:04;;;;;;;2.20;2.00;;;8.10;61.60;;;;;;5012955;28;20449;-59
2023/01/17 05:34:30;;;;;;;2.07;1.77;;;8.20;61.40;;;;;;5009838;28;20810;-59
2023/01/17 05:36:56;;;;;;;2.70;2.07;;;8.20;61.30;;;;;;5013152;28;20441;-58
2023/01/17 05:39:21;;;;;;;3.30;2.40;;;8.20;61.10;;;;;;5001146;28;20316;-59
2023/01/17 05:41:47;;;;;;;2.23;2.03;;;8.20;60.80;;;;;;4995892;28;20187;-58
2023/01/17 05:44:14;;;;;;;3.93;2.90;;;8.20;60.60;;;;;;5009789;28;20654;-59
2023/01/17 05:46:40;;;;;;;4.07;2.57;;;8.00;60.40;;;;;;5010613;28;20322;-59
2023/01/17 05:49:05;;;;;;;4.70;2.50;;;8.00;60.70;;;;;;5001701;28;20978;-59
2023/01/17 05:51:31;;;;;;;4.83;2.43;;;8.10;60.70;;;;;;5009331;28;20512;-59
2023/01/17 05:53:57;;;;;;;2.67;2.30;;;8.00;60.60;;;;;;5004637;28;20217;-59
2023/01/17 05:56:23;;;;;;;2.63;2.43;;;8.00;60.60;;;;;;4999964;28;20449;-59
2023/01/17 05:58:48;;;;;;;2.43;2.07;;;8.00;60.10;;;;;;5007751;28;20254;-59
2023/01/17 06:01:14;;;;;;;2.60;2.07;;;8.10;60.00;;;;;;5002212;28;20191;-59
2023/01/17 06:03:39;;;;;;;3.50;2.33;;;8.10;59.70;;;;;;5006068;28;20208;-59
2023/01/17 06:06:05;;;;;;;4.80;2.80;;;8.10;59.50;;;;;;5011113;28;20217;-58
2023/01/17 06:08:31;;;;;;;4.40;3.00;;;8.10;59.30;;;;;;4996880;28;20407;-59
2023/01/17 06:10:59;;;;;;;6.70;3.80;;;8.10;59.30;;;;;;5009420;28;20198;-58
2023/01/17 06:13:25;;;;;;;6.20;3.00;;;8.10;59.10;;;;;;5002334;28;20195;-58
2023/01/17 06:15:50;;;;;;;6.10;2.53;;;8.10;58.80;;;;;;5007600;28;20487;-59
2023/01/17 06:18:17;;;;;;;4.83;2.10;;;7.90;58.50;;;;;;5003910;28;20229;-59
2023/01/17 06:20:43;;;;;;;3.30;1.70;;;7.80;58.40;;;;;;4999011;28;20216;-59
2023/01/17 06:23:11;;;;;;;2.00;1.57;;;7.70;58.70;;;;;;5011099;28;20503;-59
2023/01/17 06:25:38;;;;;;;2.23;1.80;;;7.70;58.70;;;;;;5007573;28;20564;-58
2023/01/17 06:28:05;;;;;;;3.30;1.73;;;7.70;58.80;;;;;;5011211;28;20471;-59
2023/01/17 06:30:30;;;;;;;4.10;2.30;;;7.90;61.50;;;;;;5007447;28;20515;-59
2023/01/17 06:32:56;;;;;;;4.33;3.20;;;8.30;64.60;;;;;;5006862;28;20441;-59
2023/01/17 06:35:22;;;;;;;2.30;2.03;;;8.70;64.90;;;;;;4998716;28;20205;-59
2023/01/17 06:37:54;;;;;;;4.13;2.10;;;8.90;62.70;;;;;;5001755;28;20441;-59
2023/01/17 06:40:23;;;;;;;2.80;2.20;;;9.10;60.70;;;;;;5002337;28;20337;-59
2023/01/17 06:42:48;;;;;;;3.87;2.20;;;9.20;59.60;;;;;;4996983;28;20445;-58
2023/01/17 06:45:14;;;;;;;4.00;2.20;;;9.30;59.40;;;;;;4993554;28;20448;-59
2023/01/17 06:47:40;;;;;;;5.10;2.47;;;9.50;58.70;;;;;;5001418;28;20292;-59
2023/01/17 06:50:08;;;;;;;2.90;2.23;;;9.70;58.30;;;;;;5004350;28;20210;-58
2023/01/17 06:52:34;;;;;;;2.20;2.00;;;9.80;57.70;;;;;;5005099;28;20444;-59
2023/01/17 06:55:00;;;;;;;5.53;4.60;;;10.10;56.40;;;;;;5003112;28;20813;-58
2023/01/17 06:57:25;;;;;;;7.57;4.47;;;10.10;55.30;;;;;;4994837;28;20191;-58
2023/01/17 06:59:51;;;;;;;6.33;3.23;;;10.10;54.10;;;;;;4998384;28;21296;-59
2023/01/17 07:02:17;;;;;;;7.43;4.23;;;10.10;54.10;;;;;;5005497;28;20198;-59
2023/01/17 07:04:42;;;;;;;3.87;3.43;;;10.00;53.70;;;;;;5005587;28;20194;-58
2023/01/17 07:07:08;;;;;;;7.30;3.43;;;10.00;54.00;;;;;;5003270;28;20201;-58
2023/01/17 07:09:33;;;;;;;3.67;2.93;;;10.10;54.00;;;;;;5004126;28;20190;-58
2023/01/17 07:12:00;;;;;;;3.33;2.73;;;10.10;53.60;;;;;;5006419;28;20202;-58
2023/01/17 07:14:29;;;;;;;3.67;2.63;;;10.00;53.30;;;;;;5004693;28;20190;-58
2023/01/17 07:16:56;;;;;;;7.00;3.70;;;10.00;53.30;;;;;;5004119;28;20550;-59
2023/01/17 07:19:22;;;;;;;4.40;3.20;;;10.00;53.50;;;;;;4994783;28;20497;-58
2023/01/17 07:21:54;;;;;;;5.47;3.03;;;10.00;52.70;;;;;;5007102;28;20452;-58
2023/01/17 07:24:20;;;;;;;4.10;2.60;;;9.80;53.40;;;;;;5009912;28;20443;-58
2023/01/17 07:26:49;;;;;;;4.50;2.50;;;9.50;53.40;;;;;;5006164;28;20449;-58
2023/01/17 07:29:15;;;;;;;5.93;2.40;;;9.40;54.00;;;;;;4998349;28;20481;-58
2023/01/17 07:31:41;;;;;;;4.17;2.60;;;9.30;54.20;;;;;;5005213;28;20475;-58
2023/01/17 07:34:07;;;;;;;2.93;2.10;;;9.50;54.50;;;;;;5001945;28;20314;-58
2023/01/17 07:36:32;;;;;;;3.00;2.40;;;9.70;54.00;;;;;;5004422;28;20429;-58
2023/01/17 07:38:58;;;;;;;5.50;2.57;;;9.90;52.90;;;;;;4999189;28;20233;-58
2023/01/17 07:41:40;;;;;;;3.63;2.60;;;10.00;51.40;;;;;;5004748;28;20202;-58
2023/01/17 07:44:06;;;;;;;2.23;2.03;;;10.20;51.40;;;;;;5009294;28;20584;-58
2023/01/17 07:46:32;;;;;;;4.17;2.30;;;10.20;51.30;;;;;;5003712;28;20456;-59
2023/01/17 07:48:58;;;;;;;1.70;1.60;;;10.40;51.40;;;;;;5007230;28;20519;-58
2023/01/17 07:51:23;;;;;;;4.13;2.23;;;10.70;50.50;;;;;;5007407;28;20270;-59
2023/01/17 07:53:49;;;;;;;3.77;2.80;;;11.00;49.10;;;;;;4999563;28;20241;-58
2023/01/17 07:56:14;;;;;;;3.03;2.40;;;11.40;47.40;;;;;;5004982;28;20621;-58
2023/01/17 07:58:40;;;;;;;3.03;2.40;;;11.70;47.30;;;;;;5007281;28;20228;-58
2023/01/17 08:01:10;;;;;;;3.13;2.83;;;11.80;46.50;;;;;;5007863;28;20198;-58
2023/01/17 08:03:38;;;;;;;4.27;2.40;;;11.60;46.20;;;;;;5007664;28;20232;-58
2023/01/17 08:06:06;;;;;;;3.80;1.90;;;11.30;46.60;;;;;;5007725;28;20485;-59
2023/01/17 08:08:32;;;;;;;3.10;2.80;;;10.90;47.30;;;;;;4998882;28;20437;-58
2023/01/17 08:10:58;;;;;;;5.00;3.23;;;10.70;47.80;;;;;;5002643;28;20451;-59
2023/01/17 08:13:24;;;;;;;4.93;4.00;;;10.40;48.10;;;;;;5010179;28;20212;-58
2023/01/17 08:15:50;;;;;;;3.83;2.97;;;10.10;48.90;;;;;;5010964;28;20937;-57
2023/01/17 08:18:16;;;;;;;3.37;3.03;;;9.80;50.60;;;;;;5005176;28;20205;-59
2023/01/17 08:20:43;;;;;;;6.20;3.23;;;9.30;52.10;;;;;;4995611;28;20480;-58
2023/01/17 08:23:09;;;;;;;4.90;3.33;;;9.00;53.10;;;;;;4997760;28;20436;-57
2023/01/17 08:25:35;;;;;;;3.23;2.67;;;8.60;53.90;;;;;;5004844;28;20535;-55
2023/01/17 08:28:01;;;;;;;4.60;2.70;;;8.30;54.70;;;;;;4999013;28;20454;-55
2023/01/17 08:30:26;;;;;;;3.60;2.90;;;8.10;55.70;;;;;;4992839;28;20190;-56
2023/01/17 08:32:52;;;;;;;3.70;2.90;;;7.70;56.50;;;;;;4998946;28;20247;-58
2023/01/17 08:35:19;;;;;;;5.37;3.10;;;7.00;58.10;;;;;;4999822;28;20192;-57
2023/01/17 08:37:45;;;;;;;3.40;3.10;;;6.70;59.80;;;;;;5003014;28;20437;-57
2023/01/17 08:40:11;;;;;;;5.57;2.90;;;6.70;60.80;;;;;;4997488;28;20883;-58
2023/01/17 08:42:39;;;;;;;3.50;3.20;;;6.80;60.90;;;;;;5004445;28;20442;-59
2023/01/17 08:45:06;;;;;;;4.23;3.77;;;6.80;61.30;;;;;;5000168;28;20657;-58
2023/01/17 08:47:32;;;;;;;5.57;4.17;;;6.60;61.60;;;;;;5004710;28;22196;-58
2023/01/17 08:49:59;;;;;;;4.83;4.30;;;6.40;62.70;;;;;;5007841;28;20499;-58
2023/01/17 08:52:25;;;;;;;8.40;4.47;;;6.20;63.70;;;;;;5008479;28;20463;-58
2023/01/17 08:54:52;;;;;;;7.00;4.17;;;6.20;64.40;;;;;;4995942;28;20520;-57
2023/01/17 08:57:19;;;;;;;4.80;4.00;;;6.20;64.40;;;;;;5006663;28;21094;-57
2023/01/17 08:59:44;;;;;;;4.13;3.17;;;6.30;64.80;;;;;;5009218;28;20491;-56
2023/01/17 09:02:14;;;;;;;4.20;3.30;;;6.60;64.30;;;;;;5003937;28;20436;-58
2023/01/17 09:04:48;;;;;;;5.47;3.10;;;6.70;63.10;;;;;;5008771;28;20198;-58
2023/01/17 09:07:15;;;;;;;3.00;2.70;;;6.90;62.60;;;;;;5007819;28;20803;-57
2023/01/17 09:09:40;;;;;;;3.30;3.00;;;6.80;62.30;;;;;;5001555;28;20510;-59
2023/01/17 09:12:06;;;;;;;4.10;3.40;;;6.90;62.80;;;;;;5006428;28;20448;-59
2023/01/17 09:14:32;;;;;;;4.97;3.77;;;6.70;62.50;;;;;;5003809;28;20646;-58
2023/01/17 09:16:58;;;;;;;4.83;3.53;;;6.80;62.80;;;;;;5007095;28;20597;-58
2023/01/17 09:19:23;;;;;;;4.10;3.30;;;6.90;62.80;;;;;;5006667;28;20535;-58
2023/01/17 09:21:49;;;;;;;4.67;3.90;;;6.80;62.40;;;;;;5007759;28;20201;-58
2023/01/17 09:24:15;;;;;;;5.73;3.87;;;6.90;62.10;;;;;;5005715;28;20198;-58
2023/01/17 09:26:40;;;;;;;6.47;3.50;;;6.60;62.00;;;;;;5004414;28;20190;-58
2023/01/17 09:29:06;;;;;;;6.60;3.53;;;6.50;63.30;;;;;;5004559;28;20244;-58
2023/01/17 09:31:32;;;;;;;4.40;3.50;;;6.70;63.90;;;;;;5010663;28;20190;-59
2023/01/17 09:33:57;;;;;;;4.77;3.03;;;6.80;63.40;;;;;;4997916;28;21058;-58
2023/01/17 09:36:27;;;;;;;3.27;2.90;;;6.90;62.80;;;;;;5009719;28;20676;-59
2023/01/17 09:39:01;;;;;;;5.00;2.87;;;6.90;62.30;;;;;;5005190;28;20229;-59
2023/01/17 09:42:00;;;;;;;6.43;3.10;;;7.10;62.00;;;;;;5011211;28;20448;-59
2023/01/17 09:44:42;;;;;;;3.90;3.40;;;7.30;61.30;;;;;;5003117;28;20476;-59
2023/01/17 09:47:15;;;;;;;4.17;3.00;;;7.50;60.80;;;;;;5000607;28;20866;-58
2023/01/17 09:49:43;;;;;;;5.00;2.90;;;7.70;59.00;;;;;;5003297;28;20445;-58
2023/01/17 09:52:19;;;;;;;5.70;2.23;;;7.80;59.50;;;;;;4999576;28;20449;-59
2023/01/17 09:54:47;;;;;;;4.37;2.73;;;7.90;59.10;;;;;;5004667;28;20455;-59
2023/01/17 09:57:37;;;;;;;2.97;2.47;;;8.10;59.30;;;;;;5004222;28;20437;-58
2023/01/17 10:00:24;;;;;;;4.63;2.90;;;8.40;59.10;;;;;;5006514;28;20481;-58
2023/01/17 10:03:02;;;;;;;3.97;2.30;;;8.70;58.80;;;;;;5001740;28;20514;-58
2023/01/17 10:05:46;;;;;;;4.90;2.70;;;9.00;58.90;;;;;;5008823;28;20452;-58
2023/01/17 10:08:35;;;;;;;3.53;2.60;;;9.20;58.40;;;;;;4994982;28;20490;-58
2023/01/17 10:11:13;;;;;;;3.83;2.70;;;9.40;57.20;;;;;;5008736;28;20809;-58
2023/01/17 10:14:11;;;;;;;3.33;2.40;;;9.60;57.10;;;;;;5001229;28;20468;-58
2023/01/17 10:17:01;;;;;;;4.20;3.00;;;9.90;57.40;;;;;;4975037;28;20456;-59
2023/01/17 10:20:04;;;;;;;2.47;2.27;;;10.10;54.90;;;;;;5007467;28;20866;-59
2023/01/17 10:22:48;;;;;;;2.93;2.10;;;10.10;54.60;;;;;;5008680;28;22140;-59
2023/01/17 10:25:32;;;;;;;2.60;2.07;;;10.40;54.10;;;;;;5005726;28;20460;-58
2023/01/17 10:28:14;;;;;;;3.43;2.40;;;10.00;52.70;;;;;;5002425;28;20847;-59
2023/01/17 10:30:48;;;;;;;2.90;2.10;;;9.80;55.10;;;;;;5006789;28;20459;-59
2023/01/17 10:33:42;;;;;;;1.70;1.60;;;10.20;54.00;;;;;;5007830;28;20504;-59
2023/01/17 10:36:14;;;;;;;3.33;1.97;;;10.40;52.60;;;;;;5005538;28;20635;-58
2023/01/17 10:38:46;;;;;;;1.90;1.77;;;10.70;52.10;;;;;;5002229;28;20602;-58
2023/01/17 10:41:37;;;;;;;2.30;1.63;;;10.70;50.00;;;;;;5001667;28;20536;-59
2023/01/17 10:44:34;;;;;;;2.23;1.63;;;10.60;48.90;;;;;;5003219;28;20936;-59
2023/01/17 10:47:09;;;;;;;2.00;1.27;;;10.50;48.70;;;;;;4997845;28;20471;-58
2023/01/17 10:49:45;;;;;;;1.40;1.30;;;10.60;48.90;;;;;;5006134;28;20459;-59
2023/01/17 10:52:35;;;;;;;2.50;1.30;;;10.40;47.80;;;;;;5004777;28;20448;-58
2023/01/17 10:55:24;;;;;;;2.80;1.27;;;10.40;47.40;;;;;;5004119;28;20452;-58
2023/01/17 10:57:52;;;;;;;1.70;1.40;;;10.50;47.00;;;;;;5005462;28;20471;-59
2023/01/17 11:00:38;;;;;;;3.37;1.20;;;10.60;46.70;;;;;;5011557;28;20445;-58
2023/01/17 11:03:04;;;;;;;2.57;1.60;;;10.70;45.40;;;;;;5009647;28;20467;-58
2023/01/17 11:05:32;;;;;;;2.20;1.73;;;11.00;45.50;;;;;;5005359;28;20506;-59
2023/01/17 11:08:06;;;;;;;2.73;1.50;;;11.10;45.10;;;;;;5000295;28;20441;-59
2023/01/17 11:10:52;;;;;;;2.13;1.50;;;11.30;45.70;;;;;;5015610;28;20843;-58
2023/01/17 11:13:23;;;;;;;2.57;1.40;;;11.60;44.90;;;;;;5008401;28;20444;-59
2023/01/17 11:15:59;;;;;;;1.83;1.70;;;11.90;43.80;;;;;;5007726;28;20815;-59
2023/01/17 11:18:28;;;;;;;2.17;1.90;;;12.30;43.60;;;;;;5004338;28;20611;-58
2023/01/17 11:21:10;;;;;;;4.97;1.67;;;12.20;42.30;;;;;;5004882;28;20441;-59
2023/01/17 11:23:36;;;;;;;2.80;1.50;;;12.40;42.60;;;;;;4998680;28;20501;-59
2023/01/17 11:26:06;;;;;;;1.63;1.53;;;12.50;42.00;;;;;;5008197;28;20816;-58
2023/01/17 11:28:37;;;;;;;2.23;1.47;;;12.30;39.90;;;;;;5000453;28;20451;-58
2023/01/17 11:31:21;;;;;;;2.33;1.27;;;12.00;41.20;;;;;;5004280;28;20456;-58
2023/01/17 11:33:54;;;;;;;4.43;1.70;;;12.00;41.20;;;;;;5002888;28;20489;-58
2023/01/17 11:36:21;;;;;;;1.60;1.50;;;12.00;40.90;;;;;;5005187;28;20535;-58
2023/01/17 11:39:16;;;;;;;1.17;1.07;;;12.20;41.20;;;;;;5001353;28;20488;-58
2023/01/17 11:41:43;;;;;;;1.17;1.00;;;12.10;39.80;;;;;;5002295;28;20621;-59
2023/01/17 11:44:30;;;;;;;1.53;1.03;;;12.00;38.20;;;;;;5000384;28;20448;-58
2023/01/17 11:47:10;;;;;;;1.67;1.30;;;12.20;38.50;;;;;;4999051;28;20811;-58
2023/01/17 11:49:37;;;;;;;1.10;1.00;;;12.20;39.20;;;;;;5004146;28;20453;-58
2023/01/17 11:52:08;;;;;;;1.77;1.10;;;11.70;38.60;;;;;;4999212;28;21077;-58
2023/01/17 11:54:39;;;;;;;3.37;1.13;;;11.60;38.00;;;;;;5004910;28;20437;-58
2023/01/17 11:57:16;;;;;;;1.20;1.10;;;11.80;37.50;;;;;;4992817;28;20469;-58
2023/01/17 11:59:43;;;;;;;1.37;1.10;;;12.10;38.60;;;;;;4999227;28;20499;-58
2023/01/17 12:02:34;;;;;;;1.90;0.93;;;12.30;38.50;;;;;;5009648;28;20968;-59
2023/01/17 12:05:26;;;;;;;4.00;1.00;;;12.20;36.00;;;;;;4996912;28;20500;-58
2023/01/17 12:08:16;;;;;;;1.47;0.90;;;12.00;36.10;;;;;;5007635;28;20468;-58
2023/01/17 12:10:49;;;;;;;1.20;1.10;;;12.20;37.20;;;;;;5006762;28;20455;-58
2023/01/17 12:17:04;;;;;;;6.00;0.90;;;12.10;36.30;;;;;;5005813;28;20479;-58
2023/01/17 12:19:37;;;;;;;1.00;0.90;;;12.10;36.80;;;;;;5001216;28;20495;-58
2023/01/17 12:22:21;;;;;;;1.30;1.10;;;11.60;36.60;;;;;;5004888;28;20949;-58
2023/01/17 12:25:13;;;;;;;2.23;1.20;;;11.60;36.50;;;;;;5008029;28;20503;-58
2023/01/17 12:28:10;;;;;;;3.33;1.00;;;11.80;36.60;;;;;;5005048;28;20449;-58
2023/01/17 12:30:55;;;;;;;1.30;1.10;;;11.80;37.40;;;;;;4997377;28;20445;-58
2023/01/17 12:33:44;;;;;;;1.37;1.27;;;11.80;35.90;;;;;;5000371;28;20507;-58
2023/01/17 12:36:20;;;;;;;2.53;1.30;;;11.80;37.10;;;;;;5000084;28;20528;-58
2023/01/17 12:38:47;;;;;;;1.17;1.07;;;12.00;37.30;;;;;;5003713;28;20808;-57
2023/01/17 12:41:54;;;;;;;2.00;1.20;;;12.20;36.50;;;;;;5005473;28;20453;-58
2023/01/17 12:44:32;;;;;;;1.20;0.90;;;12.00;35.60;;;;;;5003356;28;20461;-57
2023/01/17 12:47:04;;;;;;;1.17;1.07;;;11.90;36.60;;;;;;5002617;28;20448;-58
2023/01/17 12:49:37;;;;;;;1.33;0.90;;;12.00;36.20;;;;;;5011249;28;20443;-58
2023/01/17 12:52:11;;;;;;;0.90;0.80;;;12.10;35.80;;;;;;5008708;28;20495;-57
2023/01/17 12:54:43;;;;;;;0.90;0.90;;;12.00;36.50;;;;;;5008968;28;21285;-57
2023/01/17 12:57:22;;;;;;;3.23;1.33;;;12.20;36.40;;;;;;4997812;28;20437;-58
2023/01/17 13:00:03;;;;;;;1.57;1.20;;;11.90;35.40;;;;;;5002514;28;20487;-57
2023/01/17 13:02:41;;;;;;;1.37;0.80;;;11.80;36.40;;;;;;5006471;28;20445;-57
2023/01/17 13:05:22;;;;;;;1.07;0.67;;;11.80;36.30;;;;;;5003395;28;20821;-57
2023/01/17 13:07:48;;;;;;;4.60;1.23;;;11.90;36.20;;;;;;5004725;28;20495;-57
2023/01/17 13:10:34;;;;;;;1.00;1.00;;;11.70;36.20;;;;;;4999484;28;20489;-59
2023/01/17 13:13:18;;;;;;;1.57;0.97;;;11.50;36.80;;;;;;5008690;28;20619;-57
2023/01/17 13:15:45;;;;;;;1.63;1.13;;;11.40;36.80;;;;;;4991296;28;20437;-57
2023/01/17 13:18:16;;;;;;;1.83;0.80;;;11.00;36.90;;;;;;5000227;28;20436;-57
2023/01/17 13:21:03;;;;;;;1.20;1.10;;;11.10;38.10;;;;;;5001668;28;20444;-57
2023/01/17 13:23:42;;;;;;;2.47;1.23;;;11.30;37.90;;;;;;5006286;28;20452;-57
2023/01/17 13:26:39;;;;;;;1.70;1.27;;;11.00;37.40;;;;;;5004266;28;20448;-57
2023/01/17 13:29:21;;;;;;;1.13;1.03;;;10.90;38.00;;;;;;5011235;28;20817;-57
2023/01/17 13:32:31;;;;;;;1.60;1.10;;;10.90;38.20;;;;;;5012426;28;20445;-57
2023/01/17 13:35:15;;;;;;;2.30;1.00;;;11.10;38.00;;;;;;5000512;28;20460;-57
2023/01/17 13:37:53;;;;;;;2.83;1.07;;;11.20;37.30;;;;;;5006717;28;20463;-57
2023/01/17 13:40:39;;;;;;;4.00;2.10;;;11.40;37.60;;;;;;5006691;28;20555;-57
2023/01/17 13:43:12;;;;;;;1.43;1.23;;;11.00;37.60;;;;;;5006876;28;20463;-57
2023/01/17 13:45:39;;;;;;;2.20;1.43;;;10.90;37.20;;;;;;5005257;28;20491;-58
2023/01/17 13:48:19;;;;;;;2.20;1.40;;;10.60;37.70;;;;;;5011023;28;20488;-57
2023/01/17 13:50:51;;;;;;;2.30;1.13;;;10.50;37.10;;;;;;5002845;28;20479;-57
2023/01/17 13:53:26;;;;;;;7.40;1.40;;;10.70;37.50;;;;;;5013637;28;20448;-57
2023/01/17 13:56:00;;;;;;;1.40;1.10;;;10.60;37.50;;;;;;5009711;28;20481;-57
2023/01/17 13:58:48;;;;;;;4.87;1.77;;;10.70;37.40;;;;;;5001330;28;21045;-57
2023/01/17 14:01:37;;;;;;;2.27;1.70;;;10.70;37.80;;;;;;5009369;28;20433;-57
2023/01/17 14:04:10;;;;;;;2.87;1.60;;;10.60;38.10;;;;;;5011877;28;20838;-57
2023/01/17 14:06:43;;;;;;;6.93;2.03;;;10.60;37.80;;;;;;4995795;28;20469;-57
2023/01/17 14:09:11;;;;;;;2.20;1.37;;;10.60;37.90;;;;;;5003851;28;20446;-56
2023/01/17 14:12:07;;;;;;;4.00;2.57;;;10.60;37.40;;;;;;4993985;28;20884;-57
2023/01/17 14:14:43;;;;;;;1.80;1.70;;;10.70;37.70;;;;;;5012351;28;20448;-57
2023/01/17 14:17:19;;;;;;;2.10;1.57;;;10.60;37.20;;;;;;5013613;28;20493;-57
2023/01/17 14:19:46;;;;;;;1.50;1.23;;;10.70;37.60;;;;;;5010896;28;20586;-57
2023/01/17 14:22:26;;;;;;;2.17;1.90;;;10.70;37.30;;;;;;5013970;28;20452;-57
2023/01/17 14:25:18;;;;;;;2.30;2.10;;;10.70;37.40;;;;;;4993693;28;20441;-57
2023/01/17 14:27:53;;;;;;;4.07;2.20;;;10.60;37.50;;;;;;4999840;28;20453;-57
2023/01/17 14:30:26;;;;;;;4.47;2.33;;;10.50;38.00;;;;;;5010583;28;20643;-57
2023/01/17 14:32:58;;;;;;;1.77;1.50;;;10.70;38.00;;;;;;5011233;28;20445;-57
2023/01/17 14:35:28;;;;;;;2.70;1.83;;;10.90;38.00;;;;;;5012678;28;20452;-57
2023/01/17 14:37:56;;;;;;;3.00;1.63;;;10.80;36.80;;;;;;4999235;28;20525;-57
2023/01/17 14:40:29;;;;;;;3.17;1.80;;;10.90;37.20;;;;;;4993592;28;20457;-58
2023/01/17 14:43:04;;;;;;;3.40;1.50;;;10.80;37.30;;;;;;5006117;28;20944;-57
2023/01/17 14:45:32;;;;;;;2.53;2.13;;;10.60;37.50;;;;;;5010102;28;20444;-58